Time;durP1;ratioP1;P1;durP2;ratioP2;P2;SDS_P1;SDS_P2;PMS_P1;PMS_P2;Temp;Humidity;BMP_temperature;BMP_pressure;BME280_temperature;BME280_humidity;BME280_pressure;Samples;Min_cycle;Max_cycle;Signal;HPM_P1;HPM_P2
2022/09/03 00:00:51;;;;;;;;;9.33;8.00;;;;;22.54;56.75;100463.59;5038239;28;46643;-65
2022/09/03 00:03:27;;;;;;;;;8.00;8.00;;;;;22.60;56.38;100467.25;5038229;28;45323;-66
2022/09/03 00:06:16;;;;;;;;;11.00;8.67;;;;;22.57;56.63;100454.16;5038447;28;45474;-64
2022/09/03 00:08:45;;;;;;;;;8.00;7.67;;;;;22.57;56.30;100463.13;5038613;28;45394;-65
2022/09/03 00:11:16;;;;;;;;;6.33;5.33;;;;;22.51;56.87;100455.91;5037990;28;46541;-66
2022/09/03 00:13:49;;;;;;;;;8.33;6.33;;;;;22.54;56.58;100454.63;5038238;28;45467;-65
2022/09/03 00:16:19;;;;;;;;;10.33;10.33;;;;;22.03;56.89;100389.03;5038458;28;45558;-65
2022/09/03 00:18:49;;;;;;;;;9.00;8.00;;;;;22.22;57.35;100418.78;5038190;28;45482;-66
2022/09/03 00:21:43;;;;;;;;;7.67;6.00;;;;;22.33;56.96;100439.69;5037978;28;46596;-67
2022/09/03 00:24:14;;;;;;;;;10.00;9.33;;;;;22.43;56.92;100443.53;5035973;28;45276;-65
2022/09/03 00:26:44;;;;;;;;;7.33;7.33;;;;;22.47;56.69;100449.31;5038255;28;45379;-66
2022/09/03 00:29:28;;;;;;;;;6.33;6.33;;;;;22.46;56.63;100453.09;5038222;28;45901;-67
2022/09/03 00:31:57;;;;;;;;;8.00;8.00;;;;;22.44;56.64;100444.34;5052951;28;48481;-66
2022/09/03 00:34:34;;;;;;;;;6.00;6.00;;;;;22.36;56.82;100431.13;5037776;28;45343;-66
2022/09/03 00:37:00;;;;;;;;;8.33;7.00;;;;;22.44;56.80;100450.59;5037642;28;45198;-65
2022/09/03 00:39:27;;;;;;;;;6.33;6.33;;;;;22.41;56.79;100437.50;5037523;28;45289;-65
2022/09/03 00:42:19;;;;;;;;;5.33;5.33;;;;;22.46;56.68;100447.66;5037281;28;46497;-66
2022/09/03 00:45:02;;;;;;;;;6.00;6.00;;;;;22.28;56.51;100413.31;5037538;28;45413;-66
2022/09/03 00:47:39;;;;;;;;;9.67;9.00;;;;;22.42;56.65;100452.69;5052955;28;45426;-67
2022/09/03 00:51:06;;;;;;;;;7.00;7.00;;;;;22.41;57.03;100450.22;5052973;28;45516;-67
2022/09/03 00:54:03;;;;;;;;;7.33;7.33;;;;;22.42;56.79;100451.84;5035966;28;45656;-65
2022/09/03 00:56:34;;;;;;;;;5.67;5.67;;;;;22.40;56.87;100454.78;5037381;28;45523;-66
2022/09/03 00:59:18;;;;;;;;;5.67;5.33;;;;;22.39;56.91;100457.75;5037555;28;45402;-66
2022/09/03 01:02:01;;;;;;;;;7.00;5.67;;;;;22.37;56.96;100459.84;5037623;28;45569;-65
2022/09/03 01:04:56;;;;;;;;;7.00;7.00;;;;;22.35;57.07;100461.97;5037239;28;45771;-65
2022/09/03 01:07:47;;;;;;;;;5.33;5.33;;;;;22.31;56.93;100463.47;5037131;28;45551;-66
2022/09/03 01:10:24;;;;;;;;;4.67;4.67;;;;;21.86;56.69;100388.00;5052459;28;45283;-68
2022/09/03 01:12:56;;;;;;;;;6.00;6.00;;;;;22.24;57.14;100458.16;5037405;28;45323;-68
2022/09/03 01:15:22;;;;;;;;;5.67;4.67;;;;;22.21;57.10;100465.88;5036988;28;45856;-65
2022/09/03 01:17:58;;;;;;;;;5.33;5.33;;;;;22.20;57.31;100456.09;5037151;28;45416;-66
2022/09/03 01:20:53;;;;;;;;;5.00;5.00;;;;;22.17;57.23;100460.94;5037369;28;45423;-65
2022/09/03 01:23:21;;;;;;;;;5.00;5.00;;;;;22.13;57.63;100457.03;5041115;28;45628;-67
2022/09/03 01:26:09;;;;;;;;;7.00;7.00;;;;;22.14;57.94;100463.25;5036754;28;47911;-67
2022/09/03 01:28:48;;;;;;;;;5.33;5.33;;;;;22.17;57.93;100458.22;5037007;28;45284;-66
2022/09/03 01:31:50;;;;;;;;;6.33;6.33;;;;;22.13;58.24;100454.31;5036982;28;45214;-65
2022/09/03 01:34:23;;;;;;;;;5.67;5.67;;;;;22.16;58.13;100467.41;5037594;28;45313;-66
2022/09/03 01:37:07;;;;;;;;;4.67;4.67;;;;;22.16;58.27;100459.28;5053019;28;47887;-66
2022/09/03 01:40:25;;;;;;;;;9.67;9.67;;;;;22.18;57.94;100456.34;5052022;28;45316;-66
2022/09/03 01:43:12;;;;;;;;;5.00;5.00;;;;;22.17;57.94;100460.94;5031198;28;45179;-66
2022/09/03 01:45:52;;;;;;;;;5.33;5.33;;;;;22.17;58.36;100463.63;5036905;28;45166;-66
2022/09/03 01:48:36;;;;;;;;;6.67;6.00;;;;;22.12;58.43;100460.78;5036550;28;45692;-66
2022/09/03 01:51:20;;;;;;;;;7.33;7.33;;;;;;;;5036432;28;45605;-65
2022/09/03 01:54:23;;;;;;;;;6.33;6.00;;;;;22.09;58.75;100453.13;5036909;28;45328;-65
2022/09/03 01:57:33;;;;;;;;;6.00;6.00;;;;;22.09;58.99;100458.53;5036774;28;45433;-65
2022/09/03 02:00:12;;;;;;;;;5.00;4.33;;;;;22.06;59.21;100456.28;5036508;28;45681;-65
2022/09/03 02:02:39;;;;;;;;;9.00;7.00;;;;;22.02;59.54;100456.91;5036611;28;45482;-65
2022/09/03 02:05:08;;;;;;;;;6.00;6.00;;;;;21.99;59.67;100457.38;5036522;28;45427;-66
2022/09/03 02:08:07;;;;;;;;;9.33;8.00;;;;;21.97;59.44;100454.88;5036944;28;45248;-65
2022/09/03 02:10:44;;;;;;;;;11.67;9.00;;;;;21.40;59.64;100361.44;5036852;28;46196;-66
2022/09/03 02:13:43;;;;;;;;;7.33;5.33;;;;;21.93;60.29;100458.28;5034845;28;46060;-66
2022/09/03 02:16:15;;;;;;;;;5.00;5.00;;;;;21.88;60.32;100458.97;5037409;28;45458;-65
2022/09/03 02:18:45;;;;;;;;;7.67;6.67;;;;;21.82;61.00;100460.69;5036833;28;45324;-66
2022/09/03 02:21:14;;;;;;;;;7.00;7.00;;;;;21.74;61.09;100460.97;5037455;28;46521;-65
2022/09/03 02:23:40;;;;;;;;;10.00;9.00;;;;;21.66;61.23;100436.09;5039757;28;45306;-66
2022/09/03 02:26:09;;;;;;;;;10.67;7.33;;;;;21.21;61.12;100352.44;5039745;28;45662;-67
2022/09/03 02:28:34;;;;;;;;;8.00;7.00;;;;;21.74;61.68;100446.59;5040060;28;45525;-66
2022/09/03 02:31:00;;;;;;;;;11.00;8.67;;;;;21.73;62.08;100461.19;5039278;28;45987;-67
2022/09/03 02:33:26;;;;;;;;;6.67;6.67;;;;;21.74;62.08;100460.13;5039398;28;45216;-65
2022/09/03 02:35:53;;;;;;;;;8.67;8.00;;;;;21.72;62.36;100457.66;5038183;28;45522;-66
2022/09/03 02:38:24;;;;;;;;;9.67;9.67;;;;;21.23;62.74;100382.81;5039353;28;45490;-65
2022/09/03 02:40:53;;;;;;;;;11.67;11.67;;;;;21.61;62.91;100463.78;5039351;28;46574;-65
2022/09/03 02:43:36;;;;;;;;;9.00;9.00;;;;;21.65;62.99;100466.91;5039130;28;45473;-66
2022/09/03 02:46:07;;;;;;;;;8.33;8.33;;;;;21.05;63.09;100370.09;5039691;28;45329;-65
2022/09/03 02:48:32;;;;;;;;;11.00;9.67;;;;;21.69;62.74;100470.81;5038614;28;45348;-65
2022/09/03 02:50:58;;;;;;;;;9.00;9.00;;;;;21.60;63.09;100447.78;5039063;28;45649;-65
2022/09/03 02:53:23;;;;;;;;;12.00;12.00;;;;;21.60;63.49;100455.91;5039553;28;45367;-67
2022/09/03 02:55:49;;;;;;;;;10.67;10.00;;;;;21.63;63.42;100466.31;5039289;28;45439;-66
2022/09/03 02:58:15;;;;;;;;;10.67;10.67;;;;;21.34;63.15;100402.91;5039830;28;45385;-66
2022/09/03 03:00:40;;;;;;;;;9.67;8.67;;;;;21.67;63.46;100465.63;5039264;28;46451;-67
2022/09/03 03:03:05;;;;;;;;;8.00;8.00;;;;;21.67;63.36;100453.97;5039295;28;45364;-65
2022/09/03 03:05:50;;;;;;;;;12.33;11.67;;;;;21.66;63.53;100453.16;5039089;28;45380;-65
2022/09/03 03:08:19;;;;;;;;;11.33;9.33;;;;;21.63;63.38;100458.19;5039518;28;45470;-65
2022/09/03 03:10:46;;;;;;;;;9.33;9.33;;;;;21.67;63.93;100470.22;5037693;28;45688;-65
2022/09/03 03:13:13;;;;;;;;;12.33;11.33;;;;;21.44;64.28;100444.63;5039023;28;45302;-65
2022/09/03 03:15:38;;;;;;;;;7.67;7.67;;;;;21.04;64.37;100378.41;5039309;28;45237;-65
2022/09/03 03:18:04;;;;;;;;;9.00;9.00;;;;;21.59;64.23;100465.91;5039467;28;45265;-65
2022/09/03 03:20:29;;;;;;;;;9.67;9.67;;;;;21.52;64.61;100441.63;5038784;28;46529;-66
2022/09/03 03:22:55;;;;;;;;;10.67;10.67;;;;;21.62;64.26;100461.91;5039729;28;45548;-66
2022/09/03 03:25:20;;;;;;;;;12.00;11.33;;;;;21.55;64.65;100467.41;5039560;28;45253;-66
2022/09/03 03:27:45;;;;;;;;;11.33;11.00;;;;;21.44;64.94;100451.91;5039264;28;45210;-65
2022/09/03 03:30:12;;;;;;;;;13.67;13.67;;;;;21.47;64.87;100454.16;5038776;28;45780;-65
2022/09/03 03:32:38;;;;;;;;;10.00;10.00;;;;;21.42;65.45;100457.53;5038295;28;45244;-65
2022/09/03 03:35:04;;;;;;;;;14.33;12.33;;;;;21.36;65.31;100447.59;5038803;28;45433;-66
2022/09/03 03:37:31;;;;;;;;;10.33;10.33;;;;;21.34;65.40;100449.69;5038915;28;45338;-65
2022/09/03 03:39:56;;;;;;;;;11.50;11.50;;;;;21.34;65.64;100463.22;5038490;28;45748;-66
2022/09/03 03:42:22;;;;;;;;;13.67;12.33;;;;;21.29;65.53;100449.53;5038525;28;45449;-67
2022/09/03 03:44:47;;;;;;;;;14.67;11.67;;;;;21.37;65.40;100448.44;5038129;28;45355;-66
2022/09/03 03:47:15;;;;;;;;;11.00;11.00;;;;;21.30;66.03;100459.31;5038592;28;45211;-65
2022/09/03 03:49:41;;;;;;;;;12.00;12.00;;;;;21.17;66.01;100438.56;5038469;28;47351;-66
2022/09/03 03:52:06;;;;;;;;;8.67;8.67;;;;;21.20;66.08;100440.00;5038318;28;45342;-66
2022/09/03 03:54:31;;;;;;;;;16.00;13.33;;;;;21.25;66.17;100448.34;5033287;28;52581;-66
2022/09/03 03:56:57;;;;;;;;;10.67;10.67;;;;;21.23;66.11;100450.41;5028745;28;45426;-66
2022/09/03 03:59:22;;;;;;;;;14.00;12.67;;;;;21.01;66.34;100428.31;5030428;28;46523;-66
2022/09/03 04:01:49;;;;;;;;;12.00;12.00;;;;;21.16;66.51;100453.16;5025307;28;45419;-65
2022/09/03 04:04:15;;;;;;;;;13.33;13.33;;;;;21.15;66.56;100439.84;5052517;28;45486;-65
2022/09/03 04:06:41;;;;;;;;;13.67;11.33;;;;;21.11;66.49;100435.94;5020084;28;45394;-65
2022/09/03 04:09:06;;;;;;;;;12.33;12.33;;;;;21.06;66.81;100446.59;5017563;28;58033;-65
2022/09/03 04:11:31;;;;;;;;;11.67;11.67;;;;;20.96;66.63;100417.34;5031766;28;45360;-66
2022/09/03 04:13:57;;;;;;;;;13.67;13.67;;;;;21.11;66.55;100444.03;5053303;28;45383;-65
2022/09/03 04:16:24;;;;;;;;;11.00;11.00;;;;;20.96;67.05;100428.97;5037775;28;45316;-65
2022/09/03 04:18:51;;;;;;;;;14.33;13.67;;;;;20.80;67.12;100409.75;5037631;28;46388;-65
2022/09/03 04:21:20;;;;;;;;;12.00;11.00;;;;;21.01;67.21;100455.34;5037728;28;45298;-66
2022/09/03 04:23:46;;;;;;;;;12.00;12.00;;;;;21.04;66.92;100454.09;5032539;28;45491;-64
2022/09/03 04:26:16;;;;;;;;;13.00;13.00;;;;;21.04;66.72;100448.69;5038044;28;45459;-64
2022/09/03 04:28:41;;;;;;;;;13.00;12.33;;;;;21.02;66.53;100437.25;5037404;28;45708;-66
2022/09/03 04:31:09;;;;;;;;;15.33;14.33;;;;;20.93;66.77;100421.31;5037293;28;45292;-65
2022/09/03 04:33:36;;;;;;;;;16.33;12.33;;;;;21.08;66.81;100449.91;5036476;28;45277;-66
2022/09/03 04:36:15;;;;;;;;;11.33;11.33;;;;;21.06;66.51;100442.00;5033246;28;45395;-64
2022/09/03 04:38:43;;;;;;;;;14.33;10.67;;;;;21.12;66.59;100454.63;5034667;28;46354;-66
2022/09/03 04:41:11;;;;;;;;;11.67;11.33;;;;;21.18;66.40;100450.22;5029320;28;45202;-65
2022/09/03 04:43:36;;;;;;;;;14.33;12.67;;;;;21.11;66.34;100433.22;5016868;28;45503;-65
2022/09/03 04:46:05;;;;;;;;;11.00;11.00;;;;;21.07;66.17;100427.44;5017650;28;45455;-66
2022/09/03 04:48:32;;;;;;;;;11.67;11.67;;;;;21.18;66.47;100444.81;5017208;28;48050;-66
2022/09/03 04:51:12;;;;;;;;;13.00;12.00;;;;;21.15;66.59;100451.50;5019973;28;45383;-65
2022/09/03 04:53:41;;;;;;;;;13.00;10.67;;;;;21.16;66.30;100450.44;5052710;28;45569;-66
2022/09/03 04:56:15;;;;;;;;;12.00;11.33;;;;;21.18;66.07;100450.22;5031364;28;45398;-64
2022/09/03 04:58:42;;;;;;;;;11.67;11.67;;;;;21.12;66.18;100448.41;5017263;28;46059;-65
2022/09/03 05:01:14;;;;;;;;;11.33;11.00;;;;;21.17;66.35;100453.97;5025372;28;45404;-66
2022/09/03 05:03:39;;;;;;;;;10.33;10.33;;;;;21.22;66.10;100463.09;5037336;28;45530;-67
2022/09/03 05:06:05;;;;;;;;;11.67;10.67;;;;;21.24;65.88;100460.19;5037569;28;45354;-66
2022/09/03 05:08:31;;;;;;;;;10.67;10.67;;;;;21.28;65.91;100468.69;5037240;28;47594;-66
2022/09/03 05:10:59;;;;;;;;;9.67;9.33;;;;;21.25;65.88;100467.25;5025045;28;45514;-66
2022/09/03 05:13:25;;;;;;;;;12.33;10.33;;;;;21.24;65.72;100454.78;5020226;28;45527;-65
2022/09/03 05:15:50;;;;;;;;;11.67;10.67;;;;;21.15;65.78;100445.25;5029417;28;45530;-66
2022/09/03 05:18:15;;;;;;;;;9.67;9.67;;;;;21.17;66.04;100462.91;5034319;28;53820;-66
2022/09/03 05:20:40;;;;;;;;;13.33;12.33;;;;;21.25;65.92;100467.25;5030005;28;45383;-65
2022/09/03 05:23:06;;;;;;;;;12.67;10.00;;;;;21.17;66.08;100453.97;5032865;28;58104;-66
2022/09/03 05:25:32;;;;;;;;;12.00;9.67;;;;;21.17;66.20;100472.91;5036837;28;45441;-66
2022/09/03 05:27:58;;;;;;;;;15.00;11.00;;;;;21.16;66.54;100468.53;5032214;28;46067;-66
2022/09/03 05:30:25;;;;;;;;;12.33;11.67;;;;;21.13;66.28;100479.78;5017272;28;45554;-66
2022/09/03 05:32:50;;;;;;;;;8.00;6.33;;;;;21.01;66.71;100454.50;5032332;28;45566;-65
2022/09/03 05:35:16;;;;;;;;;14.33;12.33;;;;;21.02;66.70;100469.69;5017061;28;45284;-65
2022/09/03 05:37:41;;;;;;;;;12.00;11.00;;;;;21.05;66.60;100471.97;5016868;28;45447;-66
2022/09/03 05:40:10;;;;;;;;;11.00;10.00;;;;;21.06;66.80;100474.44;5016869;28;45198;-66
2022/09/03 05:42:36;;;;;;;;;14.33;10.33;;;;;20.95;66.76;100467.03;5016993;28;45484;-65
2022/09/03 05:45:09;;;;;;;;;13.00;12.67;;;;;21.01;67.07;100482.38;5017189;28;45264;-66
2022/09/03 05:47:39;;;;;;;;;8.33;8.33;;;;;20.54;66.59;100402.66;5016336;28;46576;-66
2022/09/03 05:50:09;;;;;;;;;9.33;9.33;;;;;21.02;66.76;100478.59;5016475;28;45585;-66
2022/09/03 05:52:35;;;;;;;;;14.33;11.67;;;;;20.83;67.15;100469.63;5017715;28;45408;-65
2022/09/03 05:55:00;;;;;;;;;11.00;9.67;;;;;20.95;67.17;100491.34;5018280;28;45614;-65
2022/09/03 05:57:26;;;;;;;;;13.00;13.00;;;;;20.96;67.17;100501.13;5019935;28;46015;-65
2022/09/03 05:59:52;;;;;;;;;14.33;12.67;;;;;20.46;67.14;100419.16;5020093;28;45366;-67
2022/09/03 06:02:18;;;;;;;;;12.00;11.67;;;;;20.97;66.89;100508.19;5020261;28;45494;-66
2022/09/03 06:04:43;;;;;;;;;10.67;10.67;;;;;20.96;66.63;100496.53;5021093;28;45541;-66
2022/09/03 06:07:09;;;;;;;;;16.00;14.67;;;;;20.90;66.88;100494.72;5018766;28;45673;-66
2022/09/03 06:09:34;;;;;;;;;12.00;10.00;;;;;20.99;66.52;100510.66;5018260;28;45409;-66
2022/09/03 06:11:59;;;;;;;;;11.00;10.33;;;;;20.90;67.06;100519.03;5019927;28;45400;-65
2022/09/03 06:14:25;;;;;;;;;11.00;11.00;;;;;20.96;66.80;100528.13;5023726;28;45243;-66
2022/09/03 06:16:51;;;;;;;;;13.67;12.67;;;;;20.89;66.90;100511.97;5032252;28;45521;-65
2022/09/03 06:19:18;;;;;;;;;8.67;8.67;;;;;20.50;66.65;100441.97;5024395;28;45428;-66
2022/09/03 06:21:45;;;;;;;;;15.67;13.67;;;;;20.95;66.76;100511.09;5019999;28;45298;-66
2022/09/03 06:24:13;;;;;;;;;11.33;10.33;;;;;20.52;66.73;100435.28;5035578;28;45421;-67
2022/09/03 06:26:39;;;;;;;;;13.67;13.00;;;;;21.03;66.49;100522.72;5026193;28;46360;-65
2022/09/03 06:29:05;;;;;;;;;15.00;13.33;;;;;21.09;66.36;100521.84;5024916;28;45837;-66
2022/09/03 06:31:30;;;;;;;;;14.33;14.33;;;;;21.21;65.83;100526.31;5035339;28;45345;-67
2022/09/03 06:33:56;;;;;;;;;13.00;12.00;;;;;21.30;65.56;100510.69;5025955;28;45395;-68
2022/09/03 06:36:23;;;;;;;;;14.33;12.33;;;;;21.29;65.05;100490.09;5018001;28;47700;-67
2022/09/03 06:38:52;;;;;;;;;13.33;12.00;;;;;21.52;64.95;100532.78;5042845;28;46371;-67
2022/09/03 06:41:25;;;;;;;;;10.67;10.67;;;;;21.61;64.52;100528.72;5019644;28;45491;-66
2022/09/03 06:43:58;;;;;;;;;11.67;11.33;;;;;21.63;64.56;100533.94;5036693;28;45465;-65
2022/09/03 06:46:23;;;;;;;;;9.33;9.33;;;;;21.65;64.39;100513.72;5039472;28;46453;-66
2022/09/03 06:48:54;;;;;;;;;14.00;13.00;;;;;21.88;63.64;100532.03;5039537;28;45450;-65
2022/09/03 06:51:22;;;;;;;;;11.67;11.67;;;;;21.97;63.60;100532.56;5039127;28;45263;-67
2022/09/03 06:53:51;;;;;;;;;15.00;13.33;;;;;22.01;63.05;100522.94;5036435;28;45178;-66
2022/09/03 06:56:24;;;;;;;;;11.33;10.67;;;;;21.27;62.75;100370.53;5019048;28;47103;-66
2022/09/03 06:58:50;;;;;;;;;11.67;10.00;;;;;22.39;61.80;100511.91;5018036;28;45494;-67
2022/09/03 07:01:20;;;;;;;;;13.00;13.00;;;;;22.68;61.18;100527.41;5026969;28;45396;-65
2022/09/03 07:03:48;;;;;;;;;12.67;12.33;;;;;22.90;60.66;100535.06;5039130;28;45490;-66
2022/09/03 07:06:20;;;;;;;;;17.00;14.33;;;;;22.97;59.85;100530.34;5038403;28;45695;-66
2022/09/03 07:08:45;;;;;;;;;10.33;9.33;;;;;22.97;59.84;100524.94;5033599;28;45391;-66
2022/09/03 07:11:14;;;;;;;;;11.33;11.33;;;;;23.25;58.88;100527.88;5028203;28;53377;-68
2022/09/03 07:13:43;;;;;;;;;13.33;12.00;;;;;23.28;58.60;100527.41;5022819;28;45539;-66
2022/09/03 07:16:18;;;;;;;;;13.00;12.00;;;;;23.45;58.25;100532.97;5050969;28;48534;-66
2022/09/03 07:18:44;;;;;;;;;8.33;8.00;;;;;23.61;57.74;100537.72;5033499;28;45402;-66
2022/09/03 07:21:12;;;;;;;;;12.67;11.00;;;;;24.05;56.38;100530.06;5017716;28;45482;-68
2022/09/03 07:23:38;;;;;;;;;12.67;10.00;;;;;24.87;55.08;100527.97;5019574;28;45502;-69
2022/09/03 07:26:11;;;;;;;;;11.67;11.67;;;;;25.80;52.08;100506.72;5037451;28;46602;-67
2022/09/03 07:28:38;;;;;;;;;10.33;10.33;;;;;26.89;49.23;100536.75;5034692;28;45600;-66
2022/09/03 07:31:06;;;;;;;;;12.33;11.33;;;;;27.70;47.21;100546.81;5029955;28;45401;-67
2022/09/03 07:33:33;;;;;;;;;12.00;9.33;;;;;28.54;45.99;100535.84;5019156;28;45384;-66
2022/09/03 07:36:13;;;;;;;;;13.67;12.33;;;;;29.38;43.63;100532.72;5034567;28;45890;-65
2022/09/03 07:38:39;;;;;;;;;12.67;11.33;;;;;30.18;41.63;100529.38;5038333;28;45333;-66
2022/09/03 07:41:07;;;;;;;;;10.67;10.67;;;;;30.39;41.40;100547.41;5038814;28;45194;-66
2022/09/03 07:43:45;;;;;;;;;9.33;9.33;;;;;30.72;40.52;100545.94;5038840;28;45483;-66
2022/09/03 07:46:15;;;;;;;;;10.00;10.00;;;;;31.46;39.51;100552.34;5027998;28;46415;-67
2022/09/03 07:48:42;;;;;;;;;10.67;7.67;;;;;32.20;37.94;100550.25;5032554;28;45339;-68
2022/09/03 07:51:08;;;;;;;;;8.67;8.67;;;;;32.92;36.71;100546.34;5037507;28;45237;-67
2022/09/03 07:53:34;;;;;;;;;9.00;9.00;;;;;33.49;35.04;100544.38;5047820;28;45330;-69
2022/09/03 07:56:01;;;;;;;;;7.33;7.33;;;;;33.84;34.82;100534.69;5018261;28;45894;-67
2022/09/03 07:58:30;;;;;;;;;7.33;7.33;;;;;33.94;32.98;100517.13;5022818;28;45344;-69
2022/09/03 08:00:57;;;;;;;;;9.00;9.00;;;;;34.39;32.49;100550.44;5033902;28;45484;-69
2022/09/03 08:03:22;;;;;;;;;9.00;8.00;;;;;34.71;32.79;100531.00;5025876;28;45404;-69
2022/09/03 08:05:48;;;;;;;;;10.00;7.67;;;;;35.07;31.57;100538.50;5038039;28;45705;-67
2022/09/03 08:08:13;;;;;;;;;9.00;8.67;;;;;35.08;31.00;100540.13;5037246;28;45303;-67
2022/09/03 08:10:40;;;;;;;;;7.00;7.00;;;;;35.07;30.54;100527.44;5038489;28;45272;-69
2022/09/03 08:13:05;;;;;;;;;8.00;8.00;;;;;34.99;30.88;100514.34;5036995;28;45466;-70
2022/09/03 08:15:33;;;;;;;;;6.33;6.33;;;;;35.42;30.61;100552.56;5021280;28;46628;-69
2022/09/03 08:17:59;;;;;;;;;10.00;8.33;;;;;35.48;30.72;100559.63;5017278;28;45179;-69
2022/09/03 08:20:25;;;;;;;;;5.00;5.00;;;;;35.84;29.99;100565.06;5035729;28;45265;-67
2022/09/03 08:22:51;;;;;;;;;4.67;4.67;;;;;35.39;29.61;100489.63;5020549;28;45442;-68
2022/09/03 08:25:16;;;;;;;;;6.33;6.33;;;;;35.75;28.88;100548.41;5018998;28;46390;-69
2022/09/03 08:27:41;;;;;;;;;7.00;7.00;;;;;35.84;29.80;100556.78;5034853;28;45336;-67
2022/09/03 08:30:10;;;;;;;;;6.33;6.33;;;;;36.04;28.97;100575.59;5022841;28;45521;-70
2022/09/03 08:32:37;;;;;;;;;5.00;5.00;;;;;36.04;28.45;100572.81;5028574;28;45289;-69
2022/09/03 08:35:05;;;;;;;;;5.67;5.67;;;;;36.17;28.85;100582.16;5017583;28;45473;-71
2022/09/03 08:37:31;;;;;;;;;6.67;6.67;;;;;35.92;28.85;100576.19;5028185;28;45281;-73
2022/09/03 08:39:59;;;;;;;;;4.00;4.00;;;;;35.81;29.01;100580.31;5030988;28;45308;-70
2022/09/03 08:42:46;;;;;;;;;5.33;5.33;;;;;35.65;29.10;100582.69;5033119;28;45296;-75
2022/09/03 08:45:16;;;;;;;;;5.00;5.00;;;;;35.76;29.29;100583.22;5036423;28;46082;-69
2022/09/03 08:47:58;;;;;;;;;5.00;5.00;;;;;34.86;28.94;100446.19;5019108;28;45251;-72
2022/09/03 08:50:40;;;;;;;;;6.00;5.00;;;;;35.07;29.77;100577.19;5017419;28;45567;-74
2022/09/03 08:53:14;;;;;;;;;4.67;4.67;;;;;34.34;30.74;100597.47;5016741;28;45529;-74
2022/09/03 08:55:57;;;;;;;;;5.00;5.00;;;;;33.80;31.52;100583.25;5017163;28;48133;-69
2022/09/03 08:58:29;;;;;;;;;5.00;5.00;;;;;32.96;32.97;100588.69;5022953;28;45530;-65
2022/09/03 09:01:10;;;;;;;;;6.00;4.00;;;;;32.51;33.84;100603.03;5039194;28;45595;-72
2022/09/03 09:03:46;;;;;;;;;6.00;5.00;;;;;32.30;34.54;100606.00;5031864;28;45305;-69
2022/09/03 09:06:12;;;;;;;;;5.00;5.00;;;;;32.33;34.22;100594.41;5030788;28;45404;-70
2022/09/03 09:08:59;;;;;;;;;5.33;5.33;;;;;32.30;34.57;100605.19;5035963;28;45307;-70
2022/09/03 09:11:45;;;;;;;;;6.00;4.33;;;;;32.81;34.54;100599.91;5037318;28;45420;-68
2022/09/03 09:14:33;;;;;;;;;5.00;3.67;;;;;33.82;32.48;100591.22;5035992;28;45530;-67
2022/09/03 09:17:03;;;;;;;;;5.00;5.00;;;;;34.08;31.81;100600.72;5036938;28;46246;-68
2022/09/03 09:20:07;;;;;;;;;7.00;6.00;;;;;33.55;32.09;100598.28;5035839;28;45967;-67
2022/09/03 09:22:42;;;;;;;;;5.00;5.00;;;;;33.19;32.83;100600.75;5037201;28;45473;-70
2022/09/03 09:25:15;;;;;;;;;5.00;3.67;;;;;33.03;33.68;100612.28;5036009;28;45537;-68
2022/09/03 09:28:02;;;;;;;;;3.33;3.33;;;;;34.17;32.42;100598.88;5036979;28;46067;-69
2022/09/03 09:30:30;;;;;;;;;3.00;3.00;;;;;34.49;31.08;100599.94;5052071;28;45502;-69
2022/09/03 09:32:56;;;;;;;;;4.00;2.67;;;;;34.83;30.81;100573.81;5052481;28;45280;-68
2022/09/03 09:35:22;;;;;;;;;5.00;4.00;;;;;35.56;30.23;100605.88;5037404;28;45356;-71
2022/09/03 09:37:52;;;;;;;;;8.00;5.67;;;;;35.59;29.84;100606.06;5035419;28;47256;-68
2022/09/03 09:40:33;;;;;;;;;6.00;6.00;;;;;35.12;29.61;100598.34;5036827;28;45262;-70
2022/09/03 09:43:14;;;;;;;;;3.00;3.00;;;;;34.51;30.79;100597.69;5035568;28;45444;-69
2022/09/03 09:45:45;;;;;;;;;5.33;5.33;;;;;33.86;32.20;100603.34;5036711;28;45580;-69
2022/09/03 09:48:16;;;;;;;;;4.00;4.00;;;;;32.77;33.46;100598.00;5035198;28;47529;-68
2022/09/03 09:50:42;;;;;;;;;6.00;6.00;;;;;31.87;35.06;100585.81;5036475;28;45272;-68
2022/09/03 09:53:13;;;;;;;;;6.00;6.00;;;;;31.43;35.62;100539.13;5051880;28;45493;-70
2022/09/03 09:56:19;;;;;;;;;5.00;5.00;;;;;31.59;36.31;100608.53;5037271;28;45186;-70
2022/09/03 09:58:44;;;;;;;;;6.33;6.33;;;;;31.60;36.29;100601.94;5041388;28;46906;-68
2022/09/03 10:01:20;;;;;;;;;7.00;4.67;;;;;31.34;36.97;100615.06;5036716;28;45440;-69
2022/09/03 10:03:49;;;;;;;;;3.33;3.33;;;;;31.16;37.44;100620.06;5052076;28;45327;-69
2022/09/03 10:09:11;;;;;;;;;5.00;5.00;;;;;31.25;36.92;100614.84;5036184;28;45399;-69
2022/09/03 10:11:39;;;;;;;;;4.00;4.00;;;;;31.10;36.85;100614.91;5036398;28;45249;-69
2022/09/03 10:14:12;;;;;;;;;8.33;6.33;;;;;30.95;37.05;100617.72;5036547;28;45280;-68
2022/09/03 10:16:44;;;;;;;;;4.67;4.00;;;;;30.19;37.06;100522.81;5036597;28;45467;-72
2022/09/03 10:19:33;;;;;;;;;3.67;3.67;;;;;30.46;37.30;100627.50;5036194;28;46412;-68
2022/09/03 10:22:16;;;;;;;;;4.00;4.00;;;;;30.01;38.20;100625.63;5036053;28;45419;-67
2022/09/03 10:24:59;;;;;;;;;5.00;5.00;;;;;29.58;39.19;100633.31;5036009;28;45253;-69
2022/09/03 10:27:25;;;;;;;;;3.00;3.00;;;;;29.28;39.93;100612.16;5036439;28;45317;-68
2022/09/03 10:29:51;;;;;;;;;4.67;4.67;;;;;29.13;40.46;100636.75;5051405;28;46244;-69
2022/09/03 10:32:39;;;;;;;;;4.00;4.00;;;;;28.86;41.07;100647.06;5034992;28;45439;-68
2022/09/03 10:35:28;;;;;;;;;5.00;5.00;;;;;28.71;41.44;100636.84;5036164;28;45422;-71
2022/09/03 10:38:18;;;;;;;;;5.67;5.67;;;;;27.90;42.38;100557.91;5036239;28;45430;-69
2022/09/03 10:40:54;;;;;;;;;7.67;6.00;;;;;28.28;42.58;100648.91;5035866;28;45805;-69
2022/09/03 10:43:44;;;;;;;;;5.00;5.00;;;;;27.99;43.36;100645.66;5038952;28;45253;-69
2022/09/03 10:46:34;;;;;;;;;3.67;3.00;;;;;27.61;44.32;100646.66;5039313;28;45565;-68
2022/09/03 10:49:25;;;;;;;;;6.67;6.67;;;;;27.36;44.36;100645.34;5039270;28;45497;-67
2022/09/03 10:52:41;;;;;;;;;5.00;5.00;;;;;27.47;44.26;100638.91;5037196;28;46061;-68
2022/09/03 10:55:14;;;;;;;;;4.00;4.00;;;;;27.69;43.32;100627.13;5055184;28;45293;-70
2022/09/03 10:58:32;;;;;;;;;5.00;5.00;;;;;27.89;43.05;100643.69;5039369;28;45257;-67
2022/09/03 11:01:13;;;;;;;;;6.00;6.00;;;;;27.78;43.53;100640.03;5037378;28;45262;-70
2022/09/03 11:04:15;;;;;;;;;5.00;5.00;;;;;27.88;43.25;100652.97;5039209;28;46269;-70
2022/09/03 11:07:04;;;;;;;;;4.00;4.00;;;;;27.28;43.92;100627.53;5047673;28;45252;-68
2022/09/03 11:09:39;;;;;;;;;3.00;3.00;;;;;27.08;43.99;100610.13;5037793;28;45503;-70
2022/09/03 11:12:29;;;;;;;;;5.67;5.67;;;;;26.93;44.28;100630.66;5039404;28;45272;-69
2022/09/03 11:15:10;;;;;;;;;3.00;3.00;;;;;26.80;44.69;100622.84;5037482;28;46539;-70
2022/09/03 11:17:47;;;;;;;;;4.67;4.67;;;;;26.68;45.19;100622.16;5038685;28;45473;-70
2022/09/03 11:20:13;;;;;;;;;4.67;4.67;;;;;26.64;45.62;100621.03;5039027;28;45221;-68
2022/09/03 11:22:40;;;;;;;;;7.33;6.00;;;;;26.57;45.58;100625.81;5039163;28;45509;-69
2022/09/03 11:25:10;;;;;;;;;5.00;4.67;;;;;26.56;45.66;100624.16;5037315;28;47952;-69
2022/09/03 11:27:59;;;;;;;;;4.00;4.00;;;;;26.61;45.18;100622.31;5038447;28;45344;-68
2022/09/03 11:31:02;;;;;;;;;4.00;4.00;;;;;26.63;44.77;100638.44;5038556;28;45445;-69
2022/09/03 11:33:29;;;;;;;;;5.33;5.33;;;;;26.56;44.77;100632.34;5038591;28;45528;-70
2022/09/03 11:36:00;;;;;;;;;3.33;3.33;;;;;26.36;44.63;100592.00;5054179;28;48390;-69
2022/09/03 11:38:30;;;;;;;;;4.33;3.00;;;;;26.45;44.49;100608.75;5038714;28;45480;-71
2022/09/03 11:41:25;;;;;;;;;6.00;5.00;;;;;26.72;44.29;100636.94;5038846;28;45462;-69
2022/09/03 11:43:50;;;;;;;;;4.33;4.33;;;;;26.73;44.11;100619.50;5038929;28;45495;-69
2022/09/03 11:46:22;;;;;;;;;4.00;4.00;;;;;26.79;44.17;100629.38;5038496;28;46484;-69
2022/09/03 11:49:12;;;;;;;;;4.67;3.00;;;;;26.65;43.95;100626.22;5038693;28;45199;-68